sensor_id;sensor_type;location;lat;lon;timestamp;temperature;humidity
72865;DHT22;61000;48.120;11.548;2023-06-10T02:03:12;16.40;99.90
72865;DHT22;61000;48.120;11.548;2023-06-10T02:05:39;16.40;99.90
72865;DHT22;61000;48.120;11.548;2023-06-10T02:08:06;16.40;99.90
72865;DHT22;61000;48.120;11.548;2023-06-10T02:10:33;16.30;99.90
72865;DHT22;61000;48.120;11.548;2023-06-10T02:13:00;16.30;99.90
72865;DHT22;61000;48.120;11.548;2023-06-10T02:15:28;16.20;99.90
72865;DHT22;61000;48.120;11.548;2023-06-10T02:17:55;16.20;99.90
72865;DHT22;61000;48.120;11.548;2023-06-10T02:20:23;16.10;99.90
72865;DHT22;61000;48.120;11.548;2023-06-10T02:22:50;16.10;99.90
72865;DHT22;61000;48.120;11.548;2023-06-10T02:25:17;16.10;99.90
72865;DHT22;61000;48.120;11.548;2023-06-10T02:27:44;16.10;99.90
72865;DHT22;61000;48.120;11.548;2023-06-10T02:30:12;16.10;99.90
72865;DHT22;61000;48.120;11.548;2023-06-10T02:32:41;16.10;99.90
72865;DHT22;61000;48.120;11.548;2023-06-10T02:35:15;16.00;99.90
72865;DHT22;61000;48.120;11.548;2023-06-10T02:37:43;16.00;99.90
72865;DHT22;61000;48.120;11.548;2023-06-10T02:40:10;16.00;99.90
72865;DHT22;61000;48.120;11.548;2023-06-10T02:42:38;16.00;99.90
72865;DHT22;61000;48.120;11.548;2023-06-10T02:45:06;16.00;99.90
72865;DHT22;61000;48.120;11.548;2023-06-10T02:47:38;15.90;99.90
72865;DHT22;61000;48.120;11.548;2023-06-10T02:50:09;16.00;99.90
72865;DHT22;61000;48.120;11.548;2023-06-10T02:52:44;15.90;99.90
72865;DHT22;61000;48.120;11.548;2023-06-10T02:55:11;15.90;99.90
72865;DHT22;61000;48.120;11.548;2023-06-10T02:57:42;15.90;99.90
72865;DHT22;61000;48.120;11.548;2023-06-10T03:00:09;15.80;99.90
72865;DHT22;61000;48.120;11.548;2023-06-10T03:02:38;15.90;99.90
72865;DHT22;61000;48.120;11.548;2023-06-10T03:05:09;15.90;99.90
72865;DHT22;61000;48.120;11.548;2023-06-10T03:07:39;15.90;99.90
72865;DHT22;61000;48.120;11.548;2023-06-10T03:10:07;15.90;99.90
72865;DHT22;61000;48.120;11.548;2023-06-10T03:12:37;15.90;99.90
72865;DHT22;61000;48.120;11.548;2023-06-10T03:15:05;15.90;99.90
72865;DHT22;61000;48.120;11.548;2023-06-10T03:17:32;15.90;99.90
72865;DHT22;61000;48.120;11.548;2023-06-10T03:19:59;15.90;99.90
72865;DHT22;61000;48.120;11.548;2023-06-10T03:22:28;15.90;99.90
72865;DHT22;61000;48.120;11.548;2023-06-10T03:25:03;15.80;99.90
72865;DHT22;61000;48.120;11.548;2023-06-10T03:27:30;15.80;99.90
72865;DHT22;61000;48.120;11.548;2023-06-10T03:30:03;15.80;99.90
72865;DHT22;61000;48.120;11.548;2023-06-10T03:32:30;15.80;99.90
72865;DHT22;61000;48.120;11.548;2023-06-10T03:34:57;15.80;99.90
72865;DHT22;61000;48.120;11.548;2023-06-10T03:40:02;15.80;99.90
72865;DHT22;61000;48.120;11.548;2023-06-10T03:42:32;15.80;99.90
72865;DHT22;61000;48.120;11.548;2023-06-10T03:44:59;15.70;99.90
72865;DHT22;61000;48.120;11.548;2023-06-10T03:47:33;15.70;99.90
72865;DHT22;61000;48.120;11.548;2023-06-10T03:50:03;15.70;99.90
72865;DHT22;61000;48.120;11.548;2023-06-10T03:52:31;15.70;99.90
72865;DHT22;61000;48.120;11.548;2023-06-10T03:54:58;15.60;99.90
72865;DHT22;61000;48.120;11.548;2023-06-10T03:57:26;15.60;99.90
72865;DHT22;61000;48.120;11.548;2023-06-10T03:59:54;15.60;99.90
72865;DHT22;61000;48.120;11.548;2023-06-10T04:02:22;15.60;99.90
72865;DHT22;61000;48.120;11.548;2023-06-10T04:04:49;15.60;99.90
72865;DHT22;61000;48.120;11.548;2023-06-10T04:07:16;15.60;99.90
72865;DHT22;61000;48.120;11.548;2023-06-10T04:09:44;15.60;99.90
72865;DHT22;61000;48.120;11.548;2023-06-10T04:12:12;15.60;99.90
72865;DHT22;61000;48.120;11.548;2023-06-10T04:14:41;15.60;99.90
72865;DHT22;61000;48.120;11.548;2023-06-10T04:17:10;15.70;99.90
72865;DHT22;61000;48.120;11.548;2023-06-10T04:19:38;15.70;99.90
72865;DHT22;61000;48.120;11.548;2023-06-10T04:22:06;15.70;99.90
72865;DHT22;61000;48.120;11.548;2023-06-10T04:24:32;15.80;99.90
72865;DHT22;61000;48.120;11.548;2023-06-10T04:27:00;15.70;99.90
72865;DHT22;61000;48.120;11.548;2023-06-10T04:29:27;15.70;99.90
72865;DHT22;61000;48.120;11.548;2023-06-10T04:31:56;15.80;99.90
72865;DHT22;61000;48.120;11.548;2023-06-10T04:34:23;15.80;99.90
72865;DHT22;61000;48.120;11.548;2023-06-10T04:36:52;15.80;99.90
72865;DHT22;61000;48.120;11.548;2023-06-10T04:39:19;15.80;99.90
72865;DHT22;61000;48.120;11.548;2023-06-10T04:41:47;15.80;99.90
72865;DHT22;61000;48.120;11.548;2023-06-10T04:44:14;15.80;99.90
72865;DHT22;61000;48.120;11.548;2023-06-10T04:46:41;15.80;99.90
72865;DHT22;61000;48.120;11.548;2023-06-10T04:49:10;15.80;99.90
72865;DHT22;61000;48.120;11.548;2023-06-10T04:51:41;15.90;99.90
72865;DHT22;61000;48.120;11.548;2023-06-10T04:54:08;15.90;99.90
72865;DHT22;61000;48.120;11.548;2023-06-10T04:56:35;16.00;99.90
72865;DHT22;61000;48.120;11.548;2023-06-10T04:59:02;16.00;99.90
72865;DHT22;61000;48.120;11.548;2023-06-10T05:01:29;16.00;99.90
72865;DHT22;61000;48.120;11.548;2023-06-10T05:03:56;16.00;99.90
72865;DHT22;61000;48.120;11.548;2023-06-10T05:06:24;16.10;99.90
72865;DHT22;61000;48.120;11.548;2023-06-10T05:08:51;16.10;99.90
72865;DHT22;61000;48.120;11.548;2023-06-10T05:11:18;16.10;99.90
72865;DHT22;61000;48.120;11.548;2023-06-10T05:13:45;16.20;99.90
72865;DHT22;61000;48.120;11.548;2023-06-10T05:16:11;16.40;99.90
72865;DHT22;61000;48.120;11.548;2023-06-10T05:18:40;16.60;99.90
72865;DHT22;61000;48.120;11.548;2023-06-10T05:21:07;16.80;99.90
72865;DHT22;61000;48.120;11.548;2023-06-10T05:23:36;16.90;99.90
72865;DHT22;61000;48.120;11.548;2023-06-10T05:26:02;16.90;99.90
72865;DHT22;61000;48.120;11.548;2023-06-10T05:28:29;16.90;99.90
72865;DHT22;61000;48.120;11.548;2023-06-10T05:30:56;17.00;99.90
72865;DHT22;61000;48.120;11.548;2023-06-10T05:33:23;17.00;99.90
72865;DHT22;61000;48.120;11.548;2023-06-10T05:35:50;17.10;99.90
72865;DHT22;61000;48.120;11.548;2023-06-10T05:38:17;17.10;99.90
72865;DHT22;61000;48.120;11.548;2023-06-10T05:40:45;17.10;99.90
72865;DHT22;61000;48.120;11.548;2023-06-10T05:43:12;17.10;99.90
72865;DHT22;61000;48.120;11.548;2023-06-10T05:45:42;17.10;99.90
72865;DHT22;61000;48.120;11.548;2023-06-10T05:48:09;17.20;99.90
72865;DHT22;61000;48.120;11.548;2023-06-10T05:50:36;17.20;99.90
72865;DHT22;61000;48.120;11.548;2023-06-10T05:53:04;17.30;99.90
72865;DHT22;61000;48.120;11.548;2023-06-10T05:55:32;17.30;99.90
72865;DHT22;61000;48.120;11.548;2023-06-10T05:58:00;17.30;99.90
72865;DHT22;61000;48.120;11.548;2023-06-10T06:00:27;17.40;99.90
72865;DHT22;61000;48.120;11.548;2023-06-10T06:02:54;17.50;99.90
72865;DHT22;61000;48.120;11.548;2023-06-10T06:05:22;17.50;99.90
72865;DHT22;61000;48.120;11.548;2023-06-10T06:07:49;17.50;99.90
72865;DHT22;61000;48.120;11.548;2023-06-10T06:10:17;17.60;99.90
72865;DHT22;61000;48.120;11.548;2023-06-10T06:12:47;17.60;99.90
72865;DHT22;61000;48.120;11.548;2023-06-10T06:15:15;17.70;99.90
72865;DHT22;61000;48.120;11.548;2023-06-10T06:17:42;17.80;99.90
72865;DHT22;61000;48.120;11.548;2023-06-10T06:20:10;17.90;99.90
72865;DHT22;61000;48.120;11.548;2023-06-10T06:22:37;17.90;99.90
72865;DHT22;61000;48.120;11.548;2023-06-10T06:25:05;18.00;99.90
72865;DHT22;61000;48.120;11.548;2023-06-10T06:27:32;18.10;99.90
72865;DHT22;61000;48.120;11.548;2023-06-10T06:29:59;18.20;99.90
72865;DHT22;61000;48.120;11.548;2023-06-10T06:32:27;18.40;99.90
72865;DHT22;61000;48.120;11.548;2023-06-10T06:34:54;18.40;99.90
72865;DHT22;61000;48.120;11.548;2023-06-10T06:37:21;18.40;99.90
72865;DHT22;61000;48.120;11.548;2023-06-10T06:39:50;18.50;99.90
72865;DHT22;61000;48.120;11.548;2023-06-10T06:42:20;18.50;99.90
72865;DHT22;61000;48.120;11.548;2023-06-10T06:44:57;18.50;99.90
72865;DHT22;61000;48.120;11.548;2023-06-10T06:47:24;18.60;99.90
72865;DHT22;61000;48.120;11.548;2023-06-10T06:49:53;18.60;99.90
72865;DHT22;61000;48.120;11.548;2023-06-10T06:52:20;18.60;99.90
72865;DHT22;61000;48.120;11.548;2023-06-10T06:54:47;18.70;99.90
72865;DHT22;61000;48.120;11.548;2023-06-10T06:57:15;18.70;99.90
72865;DHT22;61000;48.120;11.548;2023-06-10T06:59:41;18.70;99.90
72865;DHT22;61000;48.120;11.548;2023-06-10T07:02:08;18.70;99.90
72865;DHT22;61000;48.120;11.548;2023-06-10T07:04:35;18.90;99.90
72865;DHT22;61000;48.120;11.548;2023-06-10T07:07:07;19.10;99.90
72865;DHT22;61000;48.120;11.548;2023-06-10T07:09:33;19.10;99.90
72865;DHT22;61000;48.120;11.548;2023-06-10T07:12:00;19.10;99.90
72865;DHT22;61000;48.120;11.548;2023-06-10T07:14:27;19.10;99.90
72865;DHT22;61000;48.120;11.548;2023-06-10T07:16:54;19.10;99.90
72865;DHT22;61000;48.120;11.548;2023-06-10T07:19:21;19.00;99.90
72865;DHT22;61000;48.120;11.548;2023-06-10T07:21:48;19.00;99.90
72865;DHT22;61000;48.120;11.548;2023-06-10T07:24:16;19.20;99.90
72865;DHT22;61000;48.120;11.548;2023-06-10T07:26:45;19.30;99.90
72865;DHT22;61000;48.120;11.548;2023-06-10T07:29:12;19.40;99.90
72865;DHT22;61000;48.120;11.548;2023-06-10T07:31:40;19.60;99.70
72865;DHT22;61000;48.120;11.548;2023-06-10T07:34:07;19.70;99.70
72865;DHT22;61000;48.120;11.548;2023-06-10T07:36:34;19.70;99.70
72865;DHT22;61000;48.120;11.548;2023-06-10T07:39:02;19.80;99.50
72865;DHT22;61000;48.120;11.548;2023-06-10T07:41:30;19.90;99.10
72865;DHT22;61000;48.120;11.548;2023-06-10T07:43:57;19.80;99.00
72865;DHT22;61000;48.120;11.548;2023-06-10T07:46:24;19.80;99.00
72865;DHT22;61000;48.120;11.548;2023-06-10T07:48:53;19.90;98.40
72865;DHT22;61000;48.120;11.548;2023-06-10T07:51:21;20.00;98.40
72865;DHT22;61000;48.120;11.548;2023-06-10T07:53:48;20.10;98.20
72865;DHT22;61000;48.120;11.548;2023-06-10T07:56:15;20.10;98.10
72865;DHT22;61000;48.120;11.548;2023-06-10T07:58:43;20.20;98.10
72865;DHT22;61000;48.120;11.548;2023-06-10T08:01:10;20.20;97.90
72865;DHT22;61000;48.120;11.548;2023-06-10T08:03:37;20.20;98.00
72865;DHT22;61000;48.120;11.548;2023-06-10T08:06:04;20.30;98.00
72865;DHT22;61000;48.120;11.548;2023-06-10T08:08:31;20.40;97.70
72865;DHT22;61000;48.120;11.548;2023-06-10T08:10:58;20.50;97.80
72865;DHT22;61000;48.120;11.548;2023-06-10T08:13:25;20.70;97.60
72865;DHT22;61000;48.120;11.548;2023-06-10T08:15:53;20.50;97.20
72865;DHT22;61000;48.120;11.548;2023-06-10T08:18:21;20.70;97.50
72865;DHT22;61000;48.120;11.548;2023-06-10T08:20:48;20.70;97.40
72865;DHT22;61000;48.120;11.548;2023-06-10T08:23:15;20.90;97.20
72865;DHT22;61000;48.120;11.548;2023-06-10T08:25:42;21.10;97.30
72865;DHT22;61000;48.120;11.548;2023-06-10T08:28:09;21.20;96.70
72865;DHT22;61000;48.120;11.548;2023-06-10T08:33:04;21.40;95.80
72865;DHT22;61000;48.120;11.548;2023-06-10T08:35:31;21.40;95.70
72865;DHT22;61000;48.120;11.548;2023-06-10T08:37:58;21.50;95.50
72865;DHT22;61000;48.120;11.548;2023-06-10T08:40:25;21.70;95.50
72865;DHT22;61000;48.120;11.548;2023-06-10T08:43:00;21.70;94.70
72865;DHT22;61000;48.120;11.548;2023-06-10T08:45:30;21.80;95.10
72865;DHT22;61000;48.120;11.548;2023-06-10T08:47:57;21.70;94.90
72865;DHT22;61000;48.120;11.548;2023-06-10T08:50:28;21.80;95.00
72865;DHT22;61000;48.120;11.548;2023-06-10T08:52:58;21.90;94.80
72865;DHT22;61000;48.120;11.548;2023-06-10T08:55:29;21.80;94.80
72865;DHT22;61000;48.120;11.548;2023-06-10T08:57:57;21.70;95.20
72865;DHT22;61000;48.120;11.548;2023-06-10T09:05:20;23.60;92.50
72865;DHT22;61000;48.120;11.548;2023-06-10T09:07:51;23.50;92.50
72865;DHT22;61000;48.120;11.548;2023-06-10T09:10:18;23.80;92.80
72865;DHT22;61000;48.120;11.548;2023-06-10T09:12:45;23.70;92.40
72865;DHT22;61000;48.120;11.548;2023-06-10T09:15:12;24.60;98.20
72865;DHT22;61000;48.120;11.548;2023-06-10T09:22:35;24.30;99.90
72865;DHT22;61000;48.120;11.548;2023-06-10T09:25:05;24.20;99.90
72865;DHT22;61000;48.120;11.548;2023-06-10T09:27:44;23.80;99.90
72865;DHT22;61000;48.120;11.548;2023-06-10T09:30:24;24.60;98.50
72865;DHT22;61000;48.120;11.548;2023-06-10T09:32:53;25.10;97.10
72865;DHT22;61000;48.120;11.548;2023-06-10T09:35:21;25.30;99.90
72865;DHT22;61000;48.120;11.548;2023-06-10T09:37:51;25.90;99.40
72865;DHT22;61000;48.120;11.548;2023-06-10T09:40:20;26.00;96.30
72865;DHT22;61000;48.120;11.548;2023-06-10T09:42:53;26.40;94.60
72865;DHT22;61000;48.120;11.548;2023-06-10T10:10:11;26.90;97.60
72865;DHT22;61000;48.120;11.548;2023-06-10T11:44:54;24.60;95.30
72865;DHT22;61000;48.120;11.548;2023-06-10T11:47:21;24.60;94.90
72865;DHT22;61000;48.120;11.548;2023-06-10T11:49:55;25.10;94.70
72865;DHT22;61000;48.120;11.548;2023-06-10T11:52:26;25.00;96.50
72865;DHT22;61000;48.120;11.548;2023-06-10T11:54:55;24.80;96.90
72865;DHT22;61000;48.120;11.548;2023-06-10T11:57:22;24.90;96.60
72865;DHT22;61000;48.120;11.548;2023-06-10T11:59:49;25.00;96.10
72865;DHT22;61000;48.120;11.548;2023-06-10T12:02:16;25.10;96.00
72865;DHT22;61000;48.120;11.548;2023-06-10T12:04:45;25.10;95.30
72865;DHT22;61000;48.120;11.548;2023-06-10T12:07:17;25.10;95.40
72865;DHT22;61000;48.120;11.548;2023-06-10T12:09:45;25.50;95.10
72865;DHT22;61000;48.120;11.548;2023-06-10T12:12:13;25.90;94.10
72865;DHT22;61000;48.120;11.548;2023-06-10T12:14:56;25.50;93.70
72865;DHT22;61000;48.120;11.548;2023-06-10T12:17:35;25.90;93.70
72865;DHT22;61000;48.120;11.548;2023-06-10T12:20:04;25.70;93.10
72865;DHT22;61000;48.120;11.548;2023-06-10T12:22:36;25.70;93.10
72865;DHT22;61000;48.120;11.548;2023-06-10T12:25:05;25.60;93.40
72865;DHT22;61000;48.120;11.548;2023-06-10T12:27:35;25.70;93.10
72865;DHT22;61000;48.120;11.548;2023-06-10T12:30:03;25.80;93.00
72865;DHT22;61000;48.120;11.548;2023-06-10T12:32:39;25.60;93.00
72865;DHT22;61000;48.120;11.548;2023-06-10T12:35:08;25.70;92.90
72865;DHT22;61000;48.120;11.548;2023-06-10T12:37:35;25.70;92.40
72865;DHT22;61000;48.120;11.548;2023-06-10T12:40:03;25.60;92.10
72865;DHT22;61000;48.120;11.548;2023-06-10T12:42:31;25.90;92.10
72865;DHT22;61000;48.120;11.548;2023-06-10T12:45:01;25.80;91.80
72865;DHT22;61000;48.120;11.548;2023-06-10T12:47:31;25.90;91.80
72865;DHT22;61000;48.120;11.548;2023-06-10T12:50:01;26.10;92.10
72865;DHT22;61000;48.120;11.548;2023-06-10T12:52:28;26.50;92.20
72865;DHT22;61000;48.120;11.548;2023-06-10T12:54:55;26.50;92.60
72865;DHT22;61000;48.120;11.548;2023-06-10T12:57:22;26.40;92.80
72865;DHT22;61000;48.120;11.548;2023-06-10T12:59:52;26.20;92.50
72865;DHT22;61000;48.120;11.548;2023-06-10T13:02:20;26.60;92.40
72865;DHT22;61000;48.120;11.548;2023-06-10T13:04:49;26.40;92.20
72865;DHT22;61000;48.120;11.548;2023-06-10T13:07:16;26.70;92.50
72865;DHT22;61000;48.120;11.548;2023-06-10T13:09:43;26.70;92.40
72865;DHT22;61000;48.120;11.548;2023-06-10T13:12:10;26.90;93.60
72865;DHT22;61000;48.120;11.548;2023-06-10T13:14:37;26.70;95.50
72865;DHT22;61000;48.120;11.548;2023-06-10T13:17:05;26.70;95.80
72865;DHT22;61000;48.120;11.548;2023-06-10T13:19:33;26.40;95.50
72865;DHT22;61000;48.120;11.548;2023-06-10T13:22:00;26.20;96.20
72865;DHT22;61000;48.120;11.548;2023-06-10T13:24:27;26.70;96.20
72865;DHT22;61000;48.120;11.548;2023-06-10T13:26:54;26.90;96.20
72865;DHT22;61000;48.120;11.548;2023-06-10T13:29:22;26.40;96.40
72865;DHT22;61000;48.120;11.548;2023-06-10T13:31:49;26.50;96.60
72865;DHT22;61000;48.120;11.548;2023-06-10T13:34:15;25.80;97.90
72865;DHT22;61000;48.120;11.548;2023-06-10T13:36:47;26.10;97.60
72865;DHT22;61000;48.120;11.548;2023-06-10T13:39:14;26.20;96.70
72865;DHT22;61000;48.120;11.548;2023-06-10T13:41:41;26.00;97.50
72865;DHT22;61000;48.120;11.548;2023-06-10T13:44:08;26.30;97.20
72865;DHT22;61000;48.120;11.548;2023-06-10T13:46:35;26.20;96.80
72865;DHT22;61000;48.120;11.548;2023-06-10T13:49:02;26.20;96.30
72865;DHT22;61000;48.120;11.548;2023-06-10T13:51:28;26.20;96.20
72865;DHT22;61000;48.120;11.548;2023-06-10T13:53:57;25.90;95.80
72865;DHT22;61000;48.120;11.548;2023-06-10T13:56:24;25.90;96.00
72865;DHT22;61000;48.120;11.548;2023-06-10T13:58:50;25.70;96.40
72865;DHT22;61000;48.120;11.548;2023-06-10T14:01:18;25.60;96.80
72865;DHT22;61000;48.120;11.548;2023-06-10T14:03:53;25.90;96.00
72865;DHT22;61000;48.120;11.548;2023-06-10T14:06:23;26.00;95.40
72865;DHT22;61000;48.120;11.548;2023-06-10T14:08:50;26.10;95.60
72865;DHT22;61000;48.120;11.548;2023-06-10T14:11:18;25.80;96.00
72865;DHT22;61000;48.120;11.548;2023-06-10T14:13:45;26.00;95.10
72865;DHT22;61000;48.120;11.548;2023-06-10T14:16:12;26.00;94.70
72865;DHT22;61000;48.120;11.548;2023-06-10T14:18:39;26.10;94.80
72865;DHT22;61000;48.120;11.548;2023-06-10T14:21:06;26.40;94.40
72865;DHT22;61000;48.120;11.548;2023-06-10T14:23:33;26.10;93.70
72865;DHT22;61000;48.120;11.548;2023-06-10T14:26:00;25.80;94.50
72865;DHT22;61000;48.120;11.548;2023-06-10T14:28:29;25.70;95.00
72865;DHT22;61000;48.120;11.548;2023-06-10T14:30:56;25.70;95.30
72865;DHT22;61000;48.120;11.548;2023-06-10T14:33:23;25.70;95.50
72865;DHT22;61000;48.120;11.548;2023-06-10T14:35:50;25.50;90.70
72865;DHT22;61000;48.120;11.548;2023-06-10T14:38:17;25.50;90.30
72865;DHT22;61000;48.120;11.548;2023-06-10T14:40:44;25.70;90.90
72865;DHT22;61000;48.120;11.548;2023-06-10T14:43:11;25.80;90.40
72865;DHT22;61000;48.120;11.548;2023-06-10T14:45:40;25.90;90.10
72865;DHT22;61000;48.120;11.548;2023-06-10T14:48:13;26.10;89.70
72865;DHT22;61000;48.120;11.548;2023-06-10T14:50:40;26.10;88.60
72865;DHT22;61000;48.120;11.548;2023-06-10T14:53:10;26.20;88.50
72865;DHT22;61000;48.120;11.548;2023-06-10T14:55:37;25.80;87.20
72865;DHT22;61000;48.120;11.548;2023-06-10T14:58:04;25.90;87.80
72865;DHT22;61000;48.120;11.548;2023-06-10T15:00:35;25.90;86.30
72865;DHT22;61000;48.120;11.548;2023-06-10T15:03:04;26.00;90.00
72865;DHT22;61000;48.120;11.548;2023-06-10T15:05:31;26.30;86.60
72865;DHT22;61000;48.120;11.548;2023-06-10T15:07:58;26.10;88.60
72865;DHT22;61000;48.120;11.548;2023-06-10T15:10:25;25.80;89.30
72865;DHT22;61000;48.120;11.548;2023-06-10T15:12:52;25.90;88.50
72865;DHT22;61000;48.120;11.548;2023-06-10T15:15:21;26.00;87.90
72865;DHT22;61000;48.120;11.548;2023-06-10T15:17:48;26.10;87.50
72865;DHT22;61000;48.120;11.548;2023-06-10T15:20:17;26.10;88.20
72865;DHT22;61000;48.120;11.548;2023-06-10T15:22:44;26.10;89.70
72865;DHT22;61000;48.120;11.548;2023-06-10T15:25:11;25.90;91.10
72865;DHT22;61000;48.120;11.548;2023-06-10T15:27:38;25.90;91.10
72865;DHT22;61000;48.120;11.548;2023-06-10T15:30:07;25.80;91.50
72865;DHT22;61000;48.120;11.548;2023-06-10T15:32:34;25.60;91.60
72865;DHT22;61000;48.120;11.548;2023-06-10T15:35:01;25.60;91.30
72865;DHT22;61000;48.120;11.548;2023-06-10T15:37:29;25.40;91.80
72865;DHT22;61000;48.120;11.548;2023-06-10T15:39:56;25.40;91.70
72865;DHT22;61000;48.120;11.548;2023-06-10T15:42:23;25.20;91.90
72865;DHT22;61000;48.120;11.548;2023-06-10T15:44:50;25.20;91.80
72865;DHT22;61000;48.120;11.548;2023-06-10T15:47:18;25.20;91.70
72865;DHT22;61000;48.120;11.548;2023-06-10T15:49:45;24.50;90.90
72865;DHT22;61000;48.120;11.548;2023-06-10T15:52:12;25.30;90.60
72865;DHT22;61000;48.120;11.548;2023-06-10T15:54:40;25.40;90.20
72865;DHT22;61000;48.120;11.548;2023-06-10T15:57:07;25.20;90.10
72865;DHT22;61000;48.120;11.548;2023-06-10T15:59:35;25.10;90.60
72865;DHT22;61000;48.120;11.548;2023-06-10T16:02:02;25.00;91.50
72865;DHT22;61000;48.120;11.548;2023-06-10T16:04:29;24.60;94.60
72865;DHT22;61000;48.120;11.548;2023-06-10T16:06:56;24.50;97.70
72865;DHT22;61000;48.120;11.548;2023-06-10T16:09:25;24.40;97.90
72865;DHT22;61000;48.120;11.548;2023-06-10T16:11:54;24.50;99.30
72865;DHT22;61000;48.120;11.548;2023-06-10T16:14:21;24.70;99.50
72865;DHT22;61000;48.120;11.548;2023-06-10T16:16:47;24.60;99.80
72865;DHT22;61000;48.120;11.548;2023-06-10T16:19:15;24.50;99.90
72865;DHT22;61000;48.120;11.548;2023-06-10T16:21:41;24.40;99.90
72865;DHT22;61000;48.120;11.548;2023-06-10T16:24:08;24.50;99.90
72865;DHT22;61000;48.120;11.548;2023-06-10T16:26:36;24.60;99.90
72865;DHT22;61000;48.120;11.548;2023-06-10T16:29:04;24.60;99.90
72865;DHT22;61000;48.120;11.548;2023-06-10T16:31:31;24.70;99.90
72865;DHT22;61000;48.120;11.548;2023-06-10T16:33:58;24.70;99.70
72865;DHT22;61000;48.120;11.548;2023-06-10T16:36:25;24.70;99.50
72865;DHT22;61000;48.120;11.548;2023-06-10T16:38:53;24.50;99.70
72865;DHT22;61000;48.120;11.548;2023-06-10T16:41:20;24.30;99.90
72865;DHT22;61000;48.120;11.548;2023-06-10T16:43:50;24.30;99.90
72865;DHT22;61000;48.120;11.548;2023-06-10T16:46:18;24.30;99.90
72865;DHT22;61000;48.120;11.548;2023-06-10T16:48:47;24.40;99.80
72865;DHT22;61000;48.120;11.548;2023-06-10T16:51:17;24.10;99.20
72865;DHT22;61000;48.120;11.548;2023-06-10T16:53:46;24.00;99.90
72865;DHT22;61000;48.120;11.548;2023-06-10T16:56:15;23.90;99.90
72865;DHT22;61000;48.120;11.548;2023-06-10T16:58:42;24.00;99.90
72865;DHT22;61000;48.120;11.548;2023-06-10T17:01:12;23.90;99.50
72865;DHT22;61000;48.120;11.548;2023-06-10T17:03:40;23.80;99.90
72865;DHT22;61000;48.120;11.548;2023-06-10T17:06:07;23.80;99.90
72865;DHT22;61000;48.120;11.548;2023-06-10T17:08:34;23.80;99.90
72865;DHT22;61000;48.120;11.548;2023-06-10T17:11:01;23.80;99.90
72865;DHT22;61000;48.120;11.548;2023-06-10T17:13:28;23.70;99.90
72865;DHT22;61000;48.120;11.548;2023-06-10T17:18:22;23.50;99.90
72865;DHT22;61000;48.120;11.548;2023-06-10T17:20:50;23.60;99.90
72865;DHT22;61000;48.120;11.548;2023-06-10T17:23:17;23.70;99.90
72865;DHT22;61000;48.120;11.548;2023-06-10T17:25:51;23.80;99.90
72865;DHT22;61000;48.120;11.548;2023-06-10T17:28:18;23.80;99.90
72865;DHT22;61000;48.120;11.548;2023-06-10T17:30:46;23.90;99.90
72865;DHT22;61000;48.120;11.548;2023-06-10T17:33:13;23.50;99.90
72865;DHT22;61000;48.120;11.548;2023-06-10T17:43:04;22.10;96.50
72865;DHT22;61000;48.120;11.548;2023-06-10T17:45:36;22.20;98.30
72865;DHT22;61000;48.120;11.548;2023-06-10T17:48:03;22.10;99.30
72865;DHT22;61000;48.120;11.548;2023-06-10T17:50:53;21.90;98.20
72865;DHT22;61000;48.120;11.548;2023-06-10T17:53:22;22.00;99.00
72865;DHT22;61000;48.120;11.548;2023-06-10T17:55:49;21.80;98.70
72865;DHT22;61000;48.120;11.548;2023-06-10T17:58:16;22.10;98.50
72865;DHT22;61000;48.120;11.548;2023-06-10T18:00:43;21.80;98.10
72865;DHT22;61000;48.120;11.548;2023-06-10T18:03:10;21.90;97.40
72865;DHT22;61000;48.120;11.548;2023-06-10T18:05:37;21.90;97.10
72865;DHT22;61000;48.120;11.548;2023-06-10T18:08:04;21.80;97.00
72865;DHT22;61000;48.120;11.548;2023-06-10T18:10:32;21.80;96.80
72865;DHT22;61000;48.120;11.548;2023-06-10T18:12:59;21.80;96.70
72865;DHT22;61000;48.120;11.548;2023-06-10T18:15:27;21.80;96.50
72865;DHT22;61000;48.120;11.548;2023-06-10T18:17:55;21.70;96.40
72865;DHT22;61000;48.120;11.548;2023-06-10T18:20:22;21.70;96.70
72865;DHT22;61000;48.120;11.548;2023-06-10T18:22:49;21.60;96.80
72865;DHT22;61000;48.120;11.548;2023-06-10T18:25:16;21.60;96.80
72865;DHT22;61000;48.120;11.548;2023-06-10T18:27:44;21.60;96.80
72865;DHT22;61000;48.120;11.548;2023-06-10T18:30:11;21.50;96.70
72865;DHT22;61000;48.120;11.548;2023-06-10T18:32:39;21.50;96.90
72865;DHT22;61000;48.120;11.548;2023-06-10T18:35:06;21.50;96.70
72865;DHT22;61000;48.120;11.548;2023-06-10T18:37:33;21.40;96.90
72865;DHT22;61000;48.120;11.548;2023-06-10T18:40:00;21.30;97.30
72865;DHT22;61000;48.120;11.548;2023-06-10T18:42:27;21.20;99.90
72865;DHT22;61000;48.120;11.548;2023-06-10T18:44:55;21.10;99.90
72865;DHT22;61000;48.120;11.548;2023-06-10T18:47:22;21.10;99.90
72865;DHT22;61000;48.120;11.548;2023-06-10T18:49:49;20.90;99.90
72865;DHT22;61000;48.120;11.548;2023-06-10T18:52:16;20.80;99.90
72865;DHT22;61000;48.120;11.548;2023-06-10T18:54:43;20.70;99.90
72865;DHT22;61000;48.120;11.548;2023-06-10T18:57:10;20.70;99.90
72865;DHT22;61000;48.120;11.548;2023-06-10T18:59:39;20.60;99.90
72865;DHT22;61000;48.120;11.548;2023-06-10T19:02:07;20.60;99.90
72865;DHT22;61000;48.120;11.548;2023-06-10T19:43:52;20.00;99.90
72865;DHT22;61000;48.120;11.548;2023-06-10T19:46:19;20.10;99.90
72865;DHT22;61000;48.120;11.548;2023-06-10T19:48:46;20.10;99.90
72865;DHT22;61000;48.120;11.548;2023-06-10T19:51:14;20.10;99.90
72865;DHT22;61000;48.120;11.548;2023-06-10T19:53:44;20.10;99.90
72865;DHT22;61000;48.120;11.548;2023-06-10T19:56:11;20.00;99.90
72865;DHT22;61000;48.120;11.548;2023-06-10T19:58:44;19.90;99.90
72865;DHT22;61000;48.120;11.548;2023-06-10T20:01:11;19.90;99.90
72865;DHT22;61000;48.120;11.548;2023-06-10T20:03:38;19.90;99.90
72865;DHT22;61000;48.120;11.548;2023-06-10T20:06:05;19.80;99.90
72865;DHT22;61000;48.120;11.548;2023-06-10T20:08:34;19.70;99.90
72865;DHT22;61000;48.120;11.548;2023-06-10T20:11:02;19.70;99.90
72865;DHT22;61000;48.120;11.548;2023-06-10T20:13:29;19.70;99.90
72865;DHT22;61000;48.120;11.548;2023-06-10T20:15:58;19.60;99.90
72865;DHT22;61000;48.120;11.548;2023-06-10T20:18:25;19.60;99.90
72865;DHT22;61000;48.120;11.548;2023-06-10T20:20:52;19.60;99.90
72865;DHT22;61000;48.120;11.548;2023-06-10T20:23:19;19.60;99.90